Time;durP1;ratioP1;P1;durP2;ratioP2;P2;SDS_P1;SDS_P2;PMS_P1;PMS_P2;Temp;Humidity;BMP_temperature;BMP_pressure;BME280_temperature;BME280_humidity;BME280_pressure;Samples;Min_cycle;Max_cycle;Signal;HPM_P1;HPM_P2
2023/10/16 00:01:27;;;;;;;5.40;2.88;;;;;;;5.72;100.00;101290.66;5060755;28;20216;-67
2023/10/16 00:03:56;;;;;;;1.90;1.38;;;;;;;5.75;100.00;101289.53;5053361;28;20185;-66
2023/10/16 00:06:27;;;;;;;1.17;0.85;;;;;;;5.72;100.00;101290.66;5063477;28;20279;-69
2023/10/16 00:09:00;;;;;;;0.80;0.40;;;;;;;5.67;100.00;101293.00;5063321;28;20662;-67
2023/10/16 00:11:30;;;;;;;1.65;1.02;;;;;;;5.73;100.00;101303.09;5050280;28;20615;-68
2023/10/16 00:14:00;;;;;;;1.05;0.95;;;;;;;5.66;100.00;101302.06;5054621;28;20672;-67
2023/10/16 00:16:32;;;;;;;1.23;0.95;;;;;;;5.63;100.00;101297.84;5065588;28;20203;-69
2023/10/16 00:19:09;;;;;;;0.80;0.50;;;;;;;5.54;100.00;101309.56;5055769;28;20645;-68
2023/10/16 00:21:43;;;;;;;0.80;0.60;;;;;;;5.44;100.00;101303.44;5051328;28;20228;-68
2023/10/16 00:24:13;;;;;;;5.82;2.67;;;;;;;5.47;100.00;101305.00;5053411;28;20201;-69
2023/10/16 00:26:45;;;;;;;1.20;1.00;;;;;;;5.53;100.00;101291.75;5056751;28;20573;-68
2023/10/16 00:29:23;;;;;;;1.52;1.38;;;;;;;5.53;100.00;101307.84;5049930;28;20204;-68
2023/10/16 00:31:52;;;;;;;1.00;0.50;;;;;;;5.51;100.00;101315.25;5051845;28;20707;-68
2023/10/16 00:34:22;;;;;;;0.90;0.60;;;;;;;5.45;100.00;101309.66;5045761;28;20299;-67
2023/10/16 00:36:54;;;;;;;0.90;0.60;;;;;;;5.41;100.00;101309.16;5050485;28;20697;-68
2023/10/16 00:39:28;;;;;;;3.40;1.73;;;;;;;5.36;100.00;101300.72;5035689;28;20572;-68
2023/10/16 00:41:58;;;;;;;1.35;1.10;;;;;;;5.23;100.00;101302.97;5047199;28;20626;-67
2023/10/16 00:44:33;;;;;;;1.42;0.85;;;;;;;5.35;100.00;101304.41;5042200;28;20209;-67
2023/10/16 00:47:04;;;;;;;1.27;0.90;;;;;;;5.42;100.00;101299.25;5059032;28;20267;-68
2023/10/16 00:49:35;;;;;;;0.80;0.50;;;;;;;5.42;100.00;101291.19;5050187;28;20201;-67
2023/10/16 00:52:06;;;;;;;1.15;0.70;;;;;;;5.45;100.00;101302.47;5048035;28;20208;-68
2023/10/16 00:54:39;;;;;;;1.90;1.20;;;;;;;5.44;100.00;101306.13;5058573;28;20605;-68
2023/10/16 00:57:11;;;;;;;2.35;1.70;;;;;;;5.52;100.00;101306.16;5054903;28;20199;-68
2023/10/16 00:59:41;;;;;;;1.30;0.70;;;;;;;5.45;100.00;101301.59;5046612;28;20544;-67
2023/10/16 01:02:14;;;;;;;0.80;0.50;;;;;;;5.38;100.00;101300.53;5041939;28;20273;-67
2023/10/16 01:04:44;;;;;;;1.73;1.25;;;;;;;5.38;100.00;101292.50;5044437;28;20196;-67
2023/10/16 01:07:15;;;;;;;3.13;1.05;;;;;;;5.36;100.00;101306.09;5053790;28;20204;-68
2023/10/16 01:09:46;;;;;;;0.80;0.50;;;;;;;5.29;100.00;101301.50;5050730;28;20195;-67
2023/10/16 01:12:20;;;;;;;5.80;2.80;;;;;;;5.24;100.00;101305.50;5052740;28;20239;-68
2023/10/16 01:14:49;;;;;;;11.25;2.15;;;;;;;5.25;100.00;101304.50;5058063;28;20251;-68
2023/10/16 01:17:29;;;;;;;0.88;0.55;;;;;;;5.24;100.00;101300.13;5049885;28;20196;-68
2023/10/16 01:19:59;;;;;;;0.80;0.55;;;;;;;5.29;100.00;101296.97;5048000;28;20203;-66
2023/10/16 01:22:34;;;;;;;1.33;1.20;;;;;;;5.28;100.00;101300.66;5049171;28;20228;-69
2023/10/16 01:25:08;;;;;;;0.90;0.60;;;;;;;5.26;100.00;101300.00;5050957;28;20196;-65
2023/10/16 01:27:38;;;;;;;0.90;0.55;;;;;;;5.19;100.00;101299.75;5060207;28;20208;-67
2023/10/16 01:30:09;;;;;;;2.35;1.35;;;;;;;5.25;100.00;101300.97;5049700;28;20562;-68
2023/10/16 01:32:39;;;;;;;0.90;0.60;;;;;;;5.15;100.00;101301.09;5053524;28;20232;-67
2023/10/16 01:35:09;;;;;;;0.88;0.50;;;;;;;5.10;100.00;101294.50;5044357;28;20726;-68
2023/10/16 01:37:40;;;;;;;1.08;0.98;;;;;;;5.08;100.00;101299.19;5052519;28;20278;-67
2023/10/16 01:40:21;;;;;;;1.15;0.65;;;;;;;5.14;100.00;101302.06;5057488;28;20226;-67
2023/10/16 01:42:53;;;;;;;0.80;0.50;;;;;;;5.19;100.00;101296.25;5049354;28;20586;-68
2023/10/16 01:45:23;;;;;;;2.22;0.85;;;;;;;5.22;100.00;101299.47;5049767;28;20598;-67
2023/10/16 01:47:52;;;;;;;0.90;0.60;;;;;;;5.15;100.00;101300.25;5044031;28;21089;-68
2023/10/16 01:50:23;;;;;;;2.38;0.68;;;;;;;5.10;100.00;101299.88;5055530;28;20282;-66
2023/10/16 01:52:54;;;;;;;1.08;0.90;;;;;;;5.17;100.00;101300.94;5057562;28;20721;-68
2023/10/16 01:55:25;;;;;;;2.38;1.60;;;;;;;5.08;100.00;101301.88;5061849;28;20196;-67
2023/10/16 01:57:59;;;;;;;1.40;1.30;;;;;;;5.15;100.00;101305.59;5051458;28;20192;-68
2023/10/16 02:00:34;;;;;;;0.90;0.50;;;;;;;5.19;100.00;101305.13;5043968;28;20196;-66
2023/10/16 02:03:08;;;;;;;2.40;0.80;;;;;;;5.11;100.00;101301.56;5049843;28;20208;-64
2023/10/16 02:05:41;;;;;;;1.02;0.70;;;;;;;5.09;100.00;101303.53;5048891;28;20189;-69
2023/10/16 02:08:12;;;;;;;1.52;1.30;;;;;;;5.03;100.00;101302.34;5050553;28;20613;-67
2023/10/16 02:10:43;;;;;;;3.05;0.90;;;;;;;5.09;100.00;101303.53;5048923;28;20197;-67
2023/10/16 02:13:13;;;;;;;0.90;0.70;;;;;;;5.09;100.00;101304.38;5046063;28;20864;-67
2023/10/16 02:15:42;;;;;;;0.98;0.85;;;;;;;5.11;100.00;101305.09;5050289;28;20193;-68
2023/10/16 02:18:22;;;;;;;3.50;0.82;;;;;;;5.08;100.00;101309.94;5039905;28;20647;-68
2023/10/16 02:20:52;;;;;;;1.10;0.93;;;;;;;5.08;100.00;101301.88;5056700;28;20681;-68
2023/10/16 02:23:22;;;;;;;1.00;0.60;;;;;;;5.08;100.00;101307.25;5052662;28;20220;-66
2023/10/16 02:25:52;;;;;;;1.98;1.23;;;;;;;4.94;100.00;101300.59;5056897;28;20267;-68
2023/10/16 02:28:21;;;;;;;0.80;0.50;;;;;;;4.89;100.00;101299.38;5056703;28;20197;-68
2023/10/16 02:30:50;;;;;;;1.98;1.45;;;;;;;4.93;100.00;101304.28;5045251;28;20609;-68
2023/10/16 02:33:23;;;;;;;5.88;1.77;;;;;;;5.02;100.00;101299.81;5056310;28;20323;-68
2023/10/16 02:35:53;;;;;;;1.33;0.75;;;;;;;4.94;100.00;101299.75;5051509;28;20201;-68
2023/10/16 02:38:27;;;;;;;1.00;0.60;;;;;;;5.01;100.00;101303.50;5051872;28;20193;-68
2023/10/16 02:41:03;;;;;;;4.70;1.00;;;;;;;4.88;100.00;101301.22;5048777;28;20242;-66
2023/10/16 02:43:36;;;;;;;3.20;1.05;;;;;;;4.82;100.00;101307.19;5048234;28;20242;-67
2023/10/16 02:46:09;;;;;;;1.33;0.70;;;;;;;4.86;100.00;101305.03;5050477;28;20610;-66
2023/10/16 02:48:41;;;;;;;1.65;1.00;;;;;;;4.85;100.00;101319.44;5052175;28;20597;-68
2023/10/16 02:51:16;;;;;;;0.80;0.57;;;;;;;4.62;100.00;101313.72;5049810;28;20189;-66
2023/10/16 02:53:46;;;;;;;0.80;0.57;;;;;;;4.67;100.00;101314.09;5042763;28;20192;-68
2023/10/16 02:56:17;;;;;;;4.93;0.70;;;;;;;4.66;100.00;101313.25;5047068;28;20219;-66
2023/10/16 02:58:47;;;;;;;19.05;0.98;;;;;;;4.67;100.00;101314.94;5051352;28;20192;-66
2023/10/16 03:01:18;;;;;;;1.10;0.98;;;;;;;4.72;100.00;101312.66;5048879;28;20242;-67
2023/10/16 03:03:48;;;;;;;1.40;1.15;;;;;;;4.66;100.00;101312.41;5046965;28;20224;-65
2023/10/16 03:06:18;;;;;;;2.55;0.98;;;;;;;4.65;100.00;101313.41;5042433;28;20208;-67
2023/10/16 03:08:49;;;;;;;1.35;0.95;;;;;;;4.67;100.00;101314.94;5056060;28;20271;-67
2023/10/16 03:11:21;;;;;;;1.52;1.15;;;;;;;4.66;100.00;101318.63;5045749;28;20284;-68
2023/10/16 03:13:51;;;;;;;8.73;0.82;;;;;;;4.62;100.00;101313.72;5048500;28;20215;-67
2023/10/16 03:16:23;;;;;;;2.13;1.33;;;;;;;4.55;100.00;101310.81;5043965;28;20223;-68
2023/10/16 03:19:02;;;;;;;2.35;1.10;;;;;;;4.60;100.00;101311.19;5055903;28;20203;-68
2023/10/16 03:21:34;;;;;;;0.80;0.50;;;;;;;4.59;100.00;101312.19;5052448;28;20250;-69
2023/10/16 03:24:04;;;;;;;1.75;1.40;;;;;;;4.66;100.00;101310.56;5050973;28;20181;-68
2023/10/16 03:26:41;;;;;;;1.27;1.05;;;;;;;4.68;100.00;101313.13;5044808;28;20188;-69
2023/10/16 03:29:11;;;;;;;1.10;0.70;;;;;;;4.61;100.00;101318.22;5045362;28;20200;-67
2023/10/16 03:31:40;;;;;;;3.50;0.80;;;;;;;4.50;100.00;101318.50;5053946;28;20291;-68
2023/10/16 03:34:11;;;;;;;1.20;0.93;;;;;;;4.55;100.00;101316.16;5053960;28;20197;-66
2023/10/16 03:36:41;;;;;;;1.88;1.00;;;;;;;4.63;100.00;101321.63;5047904;28;20189;-69
2023/10/16 03:39:12;;;;;;;1.02;0.60;;;;;;;4.65;100.00;101314.25;5051444;28;20276;-68
2023/10/16 03:41:42;;;;;;;0.80;0.60;;;;;;;4.60;100.00;101323.78;5042400;28;20212;-67
2023/10/16 03:44:15;;;;;;;1.55;0.60;;;;;;;4.56;100.00;101319.69;5050700;28;20674;-69
2023/10/16 03:46:44;;;;;;;1.40;0.70;;;;;;;4.54;100.00;101325.22;5049046;28;20192;-67
2023/10/16 03:49:14;;;;;;;1.63;1.42;;;;;;;4.56;100.00;101323.22;5052657;28;20271;-67
2023/10/16 03:51:46;;;;;;;2.55;0.80;;;;;;;4.41;100.00;101327.41;5050728;28;20212;-68
2023/10/16 03:54:16;;;;;;;1.67;0.73;;;;;;;4.45;100.00;101328.81;5048465;28;20238;-69
2023/10/16 03:56:46;;;;;;;1.00;0.70;;;;;;;4.36;100.00;101318.97;5056985;28;20189;-69
2023/10/16 03:59:15;;;;;;;4.07;1.50;;;;;;;4.41;100.00;101322.06;5048486;28;20197;-67
2023/10/16 04:01:44;;;;;;;3.65;0.70;;;;;;;4.49;100.00;101319.47;5053481;28;20212;-68
2023/10/16 04:04:14;;;;;;;2.53;2.05;;;;;;;4.57;100.00;101319.53;5047872;28;20556;-68
2023/10/16 04:06:43;;;;;;;0.80;0.50;;;;;;;4.51;100.00;101314.78;5047721;28;20188;-69
2023/10/16 04:09:13;;;;;;;1.33;1.15;;;;;;;4.49;100.00;101310.59;5052244;28;20536;-69
2023/10/16 04:11:48;;;;;;;1.40;1.05;;;;;;;4.52;100.00;101313.78;5051177;28;20590;-68
2023/10/16 04:14:19;;;;;;;3.75;0.70;;;;;;;4.45;100.00;101310.06;5052765;28;20200;-69
2023/10/16 04:16:54;;;;;;;1.60;1.38;;;;;;;4.46;100.00;101310.88;5047319;28;20193;-69
2023/10/16 04:19:36;;;;;;;3.90;0.75;;;;;;;4.53;100.00;101315.50;5052001;28;20713;-69
2023/10/16 04:22:08;;;;;;;4.70;1.15;;;;;;;4.58;100.00;101310.50;5054003;28;20286;-67
2023/10/16 04:24:46;;;;;;;3.40;1.15;;;;;;;4.51;100.00;101304.06;5046336;28;20197;-68
2023/10/16 04:27:29;;;;;;;5.82;1.25;;;;;;;4.50;100.00;101307.75;5046209;28;20212;-69
2023/10/16 04:33:13;;;;;;;1.40;1.30;;;;;;;4.47;100.00;101307.19;5046301;28;20627;-70
2023/10/16 04:36:49;;;;;;;1.75;0.70;;;;;;;4.44;100.00;101313.72;5051221;28;20662;-70
2023/10/16 04:38:54;;;;;;;1.20;0.90;;;;;;;4.49;100.00;101311.44;5047826;28;20193;-69
2023/10/16 04:44:49;;;;;;;1.85;1.15;;;;;;;4.47;100.00;101312.56;5052946;28;20216;-67
2023/10/16 04:47:19;;;;;;;1.50;0.90;;;;;;;4.51;100.00;101313.94;5049655;28;20189;-69
2023/10/16 04:49:59;;;;;;;5.25;1.13;;;;;;;4.47;100.00;101310.72;5051385;28;20227;-68
2023/10/16 04:55:42;;;;;;;1.58;1.23;;;;;;;4.55;100.00;101313.47;5044426;28;20608;-68
2023/10/16 04:58:27;;;;;;;1.52;0.90;;;;;;;4.58;100.00;101315.03;5056979;28;20193;-68
2023/10/16 05:01:22;;;;;;;1.33;1.17;;;;;;;4.52;100.00;101308.44;5054983;28;20594;-68
2023/10/16 05:04:14;;;;;;;0.90;0.65;;;;;;;4.39;100.00;101310.66;5059014;28;20292;-68
2023/10/16 05:06:52;;;;;;;1.00;0.75;;;;;;;4.50;100.00;101318.50;5051926;28;20205;-68
2023/10/16 05:18:11;;;;;;;1.55;0.80;;;;;;;4.47;100.00;101313.41;5033449;28;20284;-68
2023/10/16 05:21:05;;;;;;;1.10;0.85;;;;;;;4.48;100.00;101315.09;5056739;28;20235;-68
2023/10/16 06:14:11;;;;;;;5.43;1.30;;;;;;;4.75;100.00;101355.22;5053719;28;20211;-68
2023/10/16 06:16:40;;;;;;;1.10;0.75;;;;;;;4.78;100.00;101346.91;5074759;28;20192;-68
2023/10/16 06:19:16;;;;;;;1.65;1.10;;;;;;;4.85;100.00;101351.63;5072351;28;20187;-68
2023/10/16 06:21:46;;;;;;;1.40;0.85;;;;;;;4.82;100.00;101359.00;5069063;28;20565;-67
2023/10/16 06:24:25;;;;;;;2.00;0.93;;;;;;;4.84;100.00;101363.38;5077416;28;20693;-69
2023/10/16 06:26:59;;;;;;;1.35;1.17;;;;;;;4.89;100.00;101361.06;5074604;28;20325;-68
2023/10/16 06:29:35;;;;;;;2.05;1.13;;;;;;;4.93;100.00;101373.16;5072323;28;20279;-69
2023/10/16 06:32:07;;;;;;;1.05;0.90;;;;;;;4.97;100.00;101364.66;5069567;28;20219;-68
2023/10/16 06:34:37;;;;;;;1.65;1.00;;;;;;;5.00;100.00;101366.19;5066332;28;20214;-69
2023/10/16 06:37:06;;;;;;;6.10;0.82;;;;;;;5.09;100.00;101362.56;5071519;28;20187;-68
2023/10/16 06:39:41;;;;;;;1.83;1.15;;;;;;;5.09;100.00;101351.84;5073255;28;20195;-68
2023/10/16 06:42:17;;;;;;;3.97;0.93;;;;;;;5.19;100.00;101358.78;5069983;28;20215;-66
2023/10/16 06:44:53;;;;;;;0.90;0.80;;;;;;;5.29;100.00;101371.28;5070095;28;20218;-70
2023/10/16 06:47:34;;;;;;;3.70;1.00;;;;;;;5.30;100.00;101368.44;5075684;28;20278;-69
2023/10/16 06:50:32;;;;;;;3.00;1.10;;;;;;;5.47;100.00;101366.72;5069420;28;20184;-69
2023/10/16 06:52:57;;;;;;;1.42;0.95;;;;;;;5.56;100.00;101372.00;5069479;28;20244;-68
2023/10/16 06:55:25;;;;;;;1.17;0.60;;;;;;;5.61;100.00;101372.38;5077746;28;20536;-69
2023/10/16 06:57:56;;;;;;;2.10;1.13;;;;;;;5.63;100.00;101373.03;5075492;28;20287;-69
2023/10/16 07:00:27;;;;;;;1.05;0.80;;;;;;;5.69;100.00;101376.94;5080264;28;20261;-67
2023/10/16 07:02:58;;;;;;;1.10;0.93;;;;;;;5.76;100.00;101371.78;5067496;28;20204;-68
2023/10/16 07:05:42;;;;;;;1.80;1.70;;;;;;;5.87;100.00;101369.66;5076128;28;20196;-68
2023/10/16 07:08:16;;;;;;;1.83;1.70;;;;;;;5.90;100.00;101368.53;5054548;28;20671;-68
2023/10/16 07:10:55;;;;;;;17.40;1.48;;;;;;;6.09;100.00;101373.66;5069923;28;20555;-68
2023/10/16 07:13:30;;;;;;;2.53;1.70;;;;;;;6.23;100.00;101374.88;5079356;28;20219;-66
2023/10/16 07:16:00;;;;;;;2.05;0.88;;;;;;;6.17;100.00;101378.19;5073488;28;20245;-67
2023/10/16 07:18:32;;;;;;;2.70;1.00;;;;;;;6.27;100.00;101379.75;5080096;28;20609;-68
2023/10/16 07:21:08;;;;;;;1.63;1.10;;;;;;;6.29;100.00;101368.84;5075458;28;20577;-69
2023/10/16 07:23:39;;;;;;;1.58;1.42;;;;;;;6.51;100.00;101369.09;5072112;28;20215;-66
2023/10/16 07:26:10;;;;;;;2.22;1.75;;;;;;;6.57;100.00;101369.44;5072981;28;20216;-68
2023/10/16 07:28:40;;;;;;;1.00;0.65;;;;;;;6.64;100.00;101375.81;5072336;28;20187;-66
2023/10/16 07:31:10;;;;;;;1.20;0.60;;;;;;;6.70;100.00;101377.84;5069030;28;20200;-69
2023/10/16 07:33:41;;;;;;;1.25;1.13;;;;;;;6.85;100.00;101386.97;5078995;28;20183;-67
2023/10/16 07:36:12;;;;;;;1.02;0.77;;;;;;;7.00;100.00;101390.69;5071980;28;20560;-67
2023/10/16 07:38:41;;;;;;;1.23;0.98;;;;;;;7.11;100.00;101393.06;5079850;28;20203;-67
2023/10/16 07:41:11;;;;;;;7.88;2.25;;;;;;;7.26;100.00;101388.66;5070239;28;20214;-69
2023/10/16 07:43:45;;;;;;;1.33;0.90;;;;;;;7.21;99.79;101395.59;5071528;28;20204;-67
2023/10/16 07:46:27;;;;;;;2.35;0.90;;;;;;;7.26;100.00;101385.97;5072255;28;20187;-68
2023/10/16 07:49:01;;;;;;;1.25;1.15;;;;;;;7.34;98.49;101404.81;5082691;28;20206;-68
2023/10/16 07:51:30;;;;;;;1.23;0.90;;;;;;;7.48;98.70;101391.69;5083478;28;20196;-68
2023/10/16 07:54:00;;;;;;;9.27;1.70;;;;;;;7.65;97.43;101396.88;5089196;28;20242;-67
2023/10/16 07:56:32;;;;;;;1.48;0.88;;;;;;;7.63;96.86;101395.38;5090291;28;20195;-68
2023/10/16 07:59:10;;;;;;;1.08;0.73;;;;;;;7.66;96.03;101401.25;5075555;28;20255;-67
2023/10/16 08:01:48;;;;;;;1.42;0.98;;;;;;;7.66;96.93;101411.19;5079245;28;20219;-68
2023/10/16 08:04:27;;;;;;;3.03;1.73;;;;;;;7.49;97.34;101404.16;5087533;28;20297;-69
2023/10/16 08:07:04;;;;;;;1.00;0.82;;;;;;;8.00;95.77;101402.84;5090778;28;20192;-68
2023/10/16 08:09:57;;;;;;;1.58;0.95;;;;;;;8.15;94.55;101410.06;5086094;28;20290;-68
2023/10/16 08:12:37;;;;;;;0.98;0.70;;;;;;;7.96;94.87;101405.06;5084078;28;20219;-68
2023/10/16 08:15:15;;;;;;;1.73;1.23;;;;;;;7.87;96.03;101411.50;5080653;28;20224;-69
2023/10/16 08:17:47;;;;;;;1.75;0.85;;;;;;;7.95;95.21;101406.06;5083864;28;20204;-67
2023/10/16 08:20:18;;;;;;;4.72;0.90;;;;;;;8.18;93.47;101404.31;5078464;28;20705;-70
2023/10/16 08:22:48;;;;;;;1.85;1.40;;;;;;;8.31;93.83;101413.75;5088198;28;20211;-68
2023/10/16 08:25:32;;;;;;;3.05;1.63;;;;;;;8.31;93.42;101413.75;5087277;28;20203;-68
2023/10/16 08:28:20;;;;;;;1.00;0.60;;;;;;;8.33;92.31;101419.81;5074250;28;20208;-68
2023/10/16 08:30:52;;;;;;;1.00;0.73;;;;;;;8.55;91.93;101414.47;5077966;28;20219;-68
2023/10/16 08:33:30;;;;;;;1.08;0.90;;;;;;;8.80;90.00;101415.19;5082104;28;20219;-70
2023/10/16 08:36:00;;;;;;;1.15;0.73;;;;;;;9.01;89.19;101423.47;5079701;28;20694;-70
2023/10/16 08:38:32;;;;;;;3.28;1.20;;;;;;;9.01;89.09;101423.47;5087371;28;20187;-66
2023/10/16 08:41:14;;;;;;;1.00;0.60;;;;;;;8.80;89.10;101423.28;5085993;28;20227;-68
2023/10/16 08:43:54;;;;;;;1.55;0.95;;;;;;;8.64;90.71;101415.25;5083080;28;20185;-69
2023/10/16 08:46:31;;;;;;;8.68;2.20;;;;;;;8.67;90.99;101409.50;5083155;28;20251;-68
2023/10/16 08:49:02;;;;;;;4.00;1.33;;;;;;;8.89;89.93;101414.09;5088983;28;20199;-68
2023/10/16 08:51:32;;;;;;;1.10;1.00;;;;;;;8.99;90.06;101408.47;5083911;28;20192;-69
2023/10/16 08:54:03;;;;;;;3.75;1.77;;;;;;;9.09;88.28;101409.94;5084054;28;20218;-68
2023/10/16 08:56:33;;;;;;;1.75;0.90;;;;;;;9.26;86.91;101393.56;5080404;28;20194;-69
2023/10/16 08:59:04;;;;;;;5.72;1.10;;;;;;;9.27;88.23;101396.09;5078463;28;20219;-68
2023/10/16 09:01:35;;;;;;;1.90;0.93;;;;;;;9.54;86.26;101410.88;5084520;28;20192;-67
2023/10/16 09:04:09;;;;;;;1.33;0.90;;;;;;;9.48;85.59;101407.06;5078259;28;20196;-68
2023/10/16 09:06:38;;;;;;;1.20;0.60;;;;;;;9.33;84.13;101410.75;5085617;28;20188;-69
2023/10/16 09:09:13;;;;;;;2.30;1.10;;;;;;;9.40;85.19;101420.63;5087004;28;20628;-67
2023/10/16 09:11:47;;;;;;;5.10;3.15;;;;;;;9.79;84.18;101423.16;5083137;28;20283;-69
2023/10/16 09:14:17;;;;;;;3.42;1.02;;;;;;;9.87;81.58;101427.66;5083903;28;20197;-69
2023/10/16 09:16:52;;;;;;;1.38;0.68;;;;;;;10.08;81.72;101421.50;5086238;28;20538;-67
2023/10/16 09:19:31;;;;;;;4.47;1.50;;;;;;;10.62;80.50;101424.75;5078228;28;20206;-67
2023/10/16 09:22:03;;;;;;;2.75;1.98;;;;;;;10.92;78.47;101430.94;5076002;28;20474;-67
2023/10/16 09:24:33;;;;;;;0.90;0.60;;;;;;;10.66;76.33;101432.28;5075145;28;20208;-68
2023/10/16 09:27:12;;;;;;;1.53;0.90;;;;;;;10.43;78.19;101426.19;5073019;28;20498;-67
2023/10/16 09:29:45;;;;;;;1.42;0.98;;;;;;;10.30;78.53;101428.72;5081852;28;20404;-68
2023/10/16 09:32:20;;;;;;;1.33;0.50;;;;;;;10.21;79.18;101427.13;5082106;28;20215;-67
2023/10/16 09:34:53;;;;;;;1.73;1.00;;;;;;;10.20;78.68;101434.41;5073109;28;20450;-68
2023/10/16 09:37:34;;;;;;;3.00;0.90;;;;;;;10.35;77.72;101434.41;5078175;28;20566;-68
2023/10/16 09:40:19;;;;;;;2.07;1.00;;;;;;;10.29;77.76;101435.16;5076409;28;20423;-69
2023/10/16 09:43:06;;;;;;;3.72;0.68;;;;;;;10.67;75.09;101439.41;5071772;28;20486;-68
2023/10/16 09:45:36;;;;;;;2.85;0.60;;;;;;;10.92;74.18;101430.94;5071615;28;20353;-69
2023/10/16 09:48:19;;;;;;;1.30;0.80;;;;;;;11.11;74.24;101441.13;5071255;28;20212;-69
2023/10/16 09:50:50;;;;;;;1.70;1.10;;;;;;;11.56;71.04;101445.34;5050511;28;20499;-69
2023/10/16 09:53:20;;;;;;;2.50;0.90;;;;;;;11.87;69.41;101453.13;5071509;28;20983;-69
2023/10/16 09:55:58;;;;;;;0.90;0.70;;;;;;;11.93;69.72;101452.34;5075562;28;20425;-68
2023/10/16 09:58:32;;;;;;;1.83;0.90;;;;;;;11.98;68.56;101449.88;5073029;28;20417;-70
2023/10/16 10:01:06;;;;;;;2.03;1.20;;;;;;;12.16;68.71;101442.91;5063714;28;20443;-67
2023/10/16 10:03:38;;;;;;;1.93;1.00;;;;;;;12.16;68.33;101452.91;5078387;28;20445;-69
2023/10/16 10:06:20;;;;;;;10.10;0.70;;;;;;;11.92;69.20;101450.66;5067984;28;20526;-69
2023/10/16 10:09:20;;;;;;;1.17;0.67;;;;;;;11.48;71.55;101438.16;5064525;28;20414;-70
2023/10/16 10:12:04;;;;;;;2.70;2.10;;;;;;;11.39;68.67;101450.19;5073863;28;20480;-68
2023/10/16 10:14:40;;;;;;;3.10;1.17;;;;;;;11.20;69.06;101448.09;5074786;28;20429;-68
2023/10/16 10:17:19;;;;;;;3.70;1.03;;;;;;;11.03;69.66;101452.09;5077851;28;20517;-66
2023/10/16 10:19:55;;;;;;;1.10;0.70;;;;;;;10.90;71.03;101450.91;5071643;28;20481;-68
2023/10/16 10:22:27;;;;;;;0.87;0.57;;;;;;;11.04;71.43;101448.34;5077271;28;20424;-67
2023/10/16 10:25:16;;;;;;;1.60;0.87;;;;;;;10.85;71.32;101442.53;5075387;28;20427;-67
2023/10/16 10:27:48;;;;;;;1.30;0.80;;;;;;;10.64;71.09;101438.94;5073778;28;20425;-68
2023/10/16 10:30:18;;;;;;;1.47;0.80;;;;;;;10.68;71.58;101446.50;5077055;28;20434;-68
2023/10/16 10:32:55;;;;;;;1.70;0.70;;;;;;;11.06;71.42;101449.00;5056416;28;20453;-67
2023/10/16 10:35:30;;;;;;;1.30;1.00;;;;;;;11.52;70.14;101444.06;5065312;28;20503;-67
2023/10/16 10:38:17;;;;;;;2.13;1.00;;;;;;;11.83;67.23;101446.41;5065623;28;20417;-67
2023/10/16 10:41:14;;;;;;;1.00;0.70;;;;;;;12.40;65.43;101441.56;5070632;28;20439;-68
2023/10/16 10:43:47;;;;;;;4.00;1.10;;;;;;;12.57;64.77;101440.19;5070437;28;20438;-70
2023/10/16 10:46:26;;;;;;;4.40;0.70;;;;;;;12.42;63.65;101446.81;5063360;28;20445;-68
2023/10/16 10:48:56;;;;;;;1.43;1.23;;;;;;;12.69;63.80;101439.59;5067131;28;20805;-68
2023/10/16 10:51:34;;;;;;;4.20;3.23;;;;;;;12.77;62.51;101434.84;5067084;28;20483;-68
2023/10/16 10:54:06;;;;;;;3.47;1.40;;;;;;;13.14;60.67;101444.38;5072479;28;20457;-68
2023/10/16 10:56:47;;;;;;;1.20;0.50;;;;;;;12.84;60.62;101435.69;5072865;28;20403;-68
2023/10/16 10:59:39;;;;;;;1.10;0.70;;;;;;;12.93;59.48;101434.47;5076241;28;20416;-68
2023/10/16 11:02:21;;;;;;;3.37;0.80;;;;;;;12.97;60.59;101430.31;5079760;28;20450;-68
2023/10/16 11:04:53;;;;;;;1.00;0.80;;;;;;;12.38;62.19;101424.66;5074027;28;20400;-69
2023/10/16 11:07:39;;;;;;;8.73;0.60;;;;;;;12.00;62.92;101431.53;5076182;28;20455;-69
2023/10/16 11:10:08;;;;;;;1.60;0.83;;;;;;;11.89;64.51;101432.06;5077613;28;20408;-65
2023/10/16 11:12:38;;;;;;;1.30;0.67;;;;;;;11.55;65.38;101432.81;5069444;28;20421;-67
2023/10/16 11:15:12;;;;;;;1.00;0.60;;;;;;;11.27;66.86;101439.03;5047248;28;20833;-67
2023/10/16 11:17:41;;;;;;;1.30;1.07;;;;;;;11.18;66.65;101439.34;5070109;28;20446;-68
2023/10/16 11:20:27;;;;;;;5.03;1.30;;;;;;;11.24;68.03;101430.44;5066846;28;20831;-68
2023/10/16 11:22:58;;;;;;;2.20;0.70;;;;;;;11.29;68.30;101433.41;5073152;28;20450;-68
2023/10/16 11:25:30;;;;;;;3.10;0.83;;;;;;;11.29;68.63;101433.41;5054241;28;20907;-68
2023/10/16 11:28:07;;;;;;;8.50;0.80;;;;;;;11.61;68.30;101432.88;5065148;28;20438;-66
2023/10/16 11:30:38;;;;;;;1.23;0.70;;;;;;;11.81;66.65;101424.09;5070574;28;20412;-69
2023/10/16 11:33:09;;;;;;;1.33;0.90;;;;;;;12.07;66.81;101421.53;5061917;28;21013;-68
2023/10/16 11:35:42;;;;;;;1.63;1.33;;;;;;;12.10;65.66;101423.88;5072429;28;20513;-67
2023/10/16 11:38:19;;;;;;;1.10;0.83;;;;;;;12.20;65.69;101416.19;5068194;28;20431;-68
2023/10/16 11:40:50;;;;;;;5.33;3.13;;;;;;;11.91;65.33;101427.31;5076121;28;20541;-68
2023/10/16 11:43:19;;;;;;;1.97;0.70;;;;;;;11.85;65.54;101422.66;5061395;28;20553;-67
2023/10/16 11:45:53;;;;;;;1.13;0.60;;;;;;;11.81;65.70;101426.81;5072067;28;20854;-69
2023/10/16 11:48:35;;;;;;;1.00;0.70;;;;;;;11.96;66.58;101427.50;5077463;28;20454;-68
2023/10/16 11:51:10;;;;;;;1.57;0.90;;;;;;;12.03;67.39;101414.84;5061974;28;20521;-69
2023/10/16 11:53:42;;;;;;;2.60;0.63;;;;;;;11.83;64.41;101417.41;5056669;28;20428;-67
2023/10/16 11:56:13;;;;;;;1.07;0.63;;;;;;;11.56;64.75;101415.53;5077246;28;20398;-69
2023/10/16 11:58:45;;;;;;;1.03;0.60;;;;;;;11.54;65.41;101418.41;5075605;28;20529;-69
2023/10/16 12:01:14;;;;;;;1.23;0.80;;;;;;;11.72;64.32;101417.91;5065941;28;20449;-67
2023/10/16 12:04:06;;;;;;;1.33;0.60;;;;;;;11.90;63.12;101420.19;5062870;28;20858;-67
2023/10/16 12:06:35;;;;;;;1.50;0.90;;;;;;;11.94;62.96;101411.47;5073936;28;20514;-68
2023/10/16 12:09:06;;;;;;;0.97;0.70;;;;;;;11.63;63.44;101417.25;5074651;28;20948;-68
2023/10/16 12:11:35;;;;;;;1.27;0.70;;;;;;;11.68;63.76;101414.78;5072049;28;20446;-67
2023/10/16 12:14:07;;;;;;;1.17;0.60;;;;;;;11.48;64.07;101415.63;5066104;28;20437;-68
2023/10/16 12:16:35;;;;;;;0.90;0.80;;;;;;;11.48;64.15;101419.19;5069941;28;20429;-68
2023/10/16 12:19:09;;;;;;;1.37;0.70;;;;;;;11.46;64.10;101412.31;5072831;28;20430;-68
2023/10/16 12:21:38;;;;;;;1.50;0.70;;;;;;;11.60;63.34;101414.94;5067493;28;20450;-68
2023/10/16 12:24:10;;;;;;;1.63;1.00;;;;;;;11.74;63.31;101411.31;5068159;28;20521;-66
2023/10/16 12:26:40;;;;;;;10.90;0.93;;;;;;;11.99;63.35;101408.16;5062974;28;20466;-68
2023/10/16 12:29:11;;;;;;;0.90;0.60;;;;;;;11.75;63.69;101418.41;5047979;28;20798;-71
2023/10/16 12:31:43;;;;;;;2.23;1.43;;;;;;;11.80;63.93;101414.28;5080450;28;20468;-68
2023/10/16 12:34:16;;;;;;;4.00;0.80;;;;;;;11.89;64.27;101413.09;5075959;28;20505;-68
2023/10/16 12:36:45;;;;;;;1.23;0.50;;;;;;;11.92;63.53;101415.38;5063689;28;20406;-68
2023/10/16 12:39:16;;;;;;;1.53;0.60;;;;;;;11.88;64.50;101414.13;5066529;28;20929;-69
2023/10/16 12:41:45;;;;;;;0.87;0.57;;;;;;;11.81;64.64;101410.53;5070244;28;20520;-68
2023/10/16 12:44:14;;;;;;;2.80;1.00;;;;;;;11.72;64.48;101418.78;5072016;28;20396;-68
2023/10/16 12:46:43;;;;;;;1.60;1.10;;;;;;;11.71;64.83;101413.56;5067206;28;20873;-68
2023/10/16 12:49:13;;;;;;;4.93;2.00;;;;;;;11.73;65.22;101409.63;5072176;28;20424;-67
2023/10/16 12:51:43;;;;;;;5.03;0.73;;;;;;;11.63;65.40;101419.09;5061754;28;20857;-68
2023/10/16 12:54:12;;;;;;;2.33;0.73;;;;;;;11.61;65.16;101416.63;5062731;28;20427;-68
2023/10/16 12:56:43;;;;;;;1.80;0.67;;;;;;;11.58;66.20;101416.16;5077653;28;20532;-65
2023/10/16 12:59:12;;;;;;;3.17;0.87;;;;;;;11.52;65.35;101422.38;5075152;28;20529;-66
2023/10/16 13:01:41;;;;;;;3.70;1.20;;;;;;;11.44;65.93;101420.63;5057443;28;20435;-67
2023/10/16 13:04:15;;;;;;;1.00;0.60;;;;;;;11.59;65.38;101417.81;5066799;28;20533;-67
2023/10/16 13:06:44;;;;;;;1.97;0.97;;;;;;;11.89;65.05;101419.34;5072359;28;20496;-68